sensor_id;sensor_type;location;lat;lon;timestamp;pressure;altitude;pressure_sealevel;temperature;humidity
80118;BME280;69424;48.770;-1.564;2023-07-13T00:00:26;101820.46;;;17.79;71.54
80118;BME280;69424;48.770;-1.564;2023-07-13T00:01:19;101822.78;;;17.78;71.51
80118;BME280;69424;48.770;-1.564;2023-07-13T00:01:53;101824.39;;;17.77;71.64
80118;BME280;69424;48.770;-1.564;2023-07-13T00:02:26;101821.72;;;17.79;71.53
80118;BME280;69424;48.770;-1.564;2023-07-13T00:03:00;101828.33;;;17.80;71.68
80118;BME280;69424;48.770;-1.564;2023-07-13T00:03:33;101827.77;;;17.81;71.56
80118;BME280;69424;48.770;-1.564;2023-07-13T00:04:08;101823.83;;;17.82;71.45
80118;BME280;69424;48.770;-1.564;2023-07-13T00:04:41;101829.74;;;17.83;71.31
80118;BME280;69424;48.770;-1.564;2023-07-13T00:05:14;101826.34;;;17.85;71.26
80118;BME280;69424;48.770;-1.564;2023-07-13T00:05:57;101825.97;;;17.85;71.42
80118;BME280;69424;48.770;-1.564;2023-07-13T00:06:30;101829.38;;;17.86;71.26
80118;BME280;69424;48.770;-1.564;2023-07-13T00:07:07;101831.36;;;17.87;71.47
80118;BME280;69424;48.770;-1.564;2023-07-13T00:07:40;101831.02;;;17.88;71.43
80118;BME280;69424;48.770;-1.564;2023-07-13T00:08:13;101831.19;;;17.88;71.39
80118;BME280;69424;48.770;-1.564;2023-07-13T00:08:46;101830.47;;;17.89;71.61
80118;BME280;69424;48.770;-1.564;2023-07-13T00:09:21;101835.13;;;17.88;71.48
80118;BME280;69424;48.770;-1.564;2023-07-13T00:09:55;101834.05;;;17.88;71.33
80118;BME280;69424;48.770;-1.564;2023-07-13T00:10:28;101835.13;;;17.88;71.33
80118;BME280;69424;48.770;-1.564;2023-07-13T00:11:02;101833.67;;;17.87;71.09
80118;BME280;69424;48.770;-1.564;2023-07-13T00:11:35;101834.21;;;17.87;70.89
80118;BME280;69424;48.770;-1.564;2023-07-13T00:12:23;101832.41;;;17.86;70.97
80118;BME280;69424;48.770;-1.564;2023-07-13T00:12:57;101831.16;;;17.86;70.87
80118;BME280;69424;48.770;-1.564;2023-07-13T00:13:30;101830.27;;;17.86;70.72
80118;BME280;69424;48.770;-1.564;2023-07-13T00:14:03;101829.02;;;17.85;70.67
80118;BME280;69424;48.770;-1.564;2023-07-13T00:14:36;101832.23;;;17.85;70.71
80118;BME280;69424;48.770;-1.564;2023-07-13T00:15:13;101831.70;;;17.85;70.75
80118;BME280;69424;48.770;-1.564;2023-07-13T00:15:48;101829.92;;;17.83;70.79
80118;BME280;69424;48.770;-1.564;2023-07-13T00:16:22;101831.89;;;17.84;70.59
80118;BME280;69424;48.770;-1.564;2023-07-13T00:16:55;101827.23;;;17.84;70.62
80118;BME280;69424;48.770;-1.564;2023-07-13T00:17:28;101831.70;;;17.84;70.26
80118;BME280;69424;48.770;-1.564;2023-07-13T00:18:01;101827.42;;;17.83;70.27
80118;BME280;69424;48.770;-1.564;2023-07-13T00:18:34;101832.23;;;17.83;70.13
80118;BME280;69424;48.770;-1.564;2023-07-13T00:19:07;101831.16;;;17.83;69.81
80118;BME280;69424;48.770;-1.564;2023-07-13T00:19:40;101832.95;;;17.83;69.85
80118;BME280;69424;48.770;-1.564;2023-07-13T00:20:13;101827.60;;;17.81;69.95
80118;BME280;69424;48.770;-1.564;2023-07-13T00:20:46;101833.86;;;17.81;70.18
80118;BME280;69424;48.770;-1.564;2023-07-13T00:21:19;101831.02;;;17.80;70.33
80118;BME280;69424;48.770;-1.564;2023-07-13T00:21:52;101830.65;;;17.79;70.34
80118;BME280;69424;48.770;-1.564;2023-07-13T00:22:28;101828.86;;;17.77;70.46
80118;BME280;69424;48.770;-1.564;2023-07-13T00:23:01;101829.95;;;17.77;70.67
80118;BME280;69424;48.770;-1.564;2023-07-13T00:23:37;101830.30;;;17.76;71.02
80118;BME280;69424;48.770;-1.564;2023-07-13T00:24:12;101829.21;;;17.77;71.03
80118;BME280;69424;48.770;-1.564;2023-07-13T00:24:45;101829.05;;;17.77;70.88
80118;BME280;69424;48.770;-1.564;2023-07-13T00:25:20;101827.80;;;17.78;70.76
80118;BME280;69424;48.770;-1.564;2023-07-13T00:25:53;101829.59;;;17.79;70.79
80118;BME280;69424;48.770;-1.564;2023-07-13T00:26:29;101828.51;;;17.79;70.85
80118;BME280;69424;48.770;-1.564;2023-07-13T00:27:03;101827.96;;;17.80;70.79
80118;BME280;69424;48.770;-1.564;2023-07-13T00:27:36;101826.70;;;17.82;70.73
80118;BME280;69424;48.770;-1.564;2023-07-13T00:28:09;101822.94;;;17.82;70.48
80118;BME280;69424;48.770;-1.564;2023-07-13T00:28:42;101824.54;;;17.84;70.54
80118;BME280;69424;48.770;-1.564;2023-07-13T00:29:15;101825.97;;;17.85;70.45
80118;BME280;69424;48.770;-1.564;2023-07-13T00:29:49;101827.77;;;17.86;70.35
80118;BME280;69424;48.770;-1.564;2023-07-13T00:30:23;101828.15;;;17.87;70.26
80118;BME280;69424;48.770;-1.564;2023-07-13T00:30:57;101827.26;;;17.88;70.15
80118;BME280;69424;48.770;-1.564;2023-07-13T00:31:30;101830.64;;;17.89;70.27
80118;BME280;69424;48.770;-1.564;2023-07-13T00:32:05;101826.89;;;17.90;70.04
80118;BME280;69424;48.770;-1.564;2023-07-13T00:32:38;101825.27;;;17.90;69.98
80118;BME280;69424;48.770;-1.564;2023-07-13T00:33:11;101825.09;;;17.91;70.14
80118;BME280;69424;48.770;-1.564;2023-07-13T00:33:50;101825.45;;;17.92;70.16
80118;BME280;69424;48.770;-1.564;2023-07-13T00:34:23;101824.55;;;17.92;70.01
80118;BME280;69424;48.770;-1.564;2023-07-13T00:34:57;101825.45;;;17.92;69.87
80118;BME280;69424;48.770;-1.564;2023-07-13T00:35:31;101823.29;;;17.92;69.36
80118;BME280;69424;48.770;-1.564;2023-07-13T00:36:04;101826.34;;;17.92;69.31
80118;BME280;69424;48.770;-1.564;2023-07-13T00:36:37;101824.55;;;17.92;69.42
80118;BME280;69424;48.770;-1.564;2023-07-13T00:37:10;101827.94;;;17.92;69.69
80118;BME280;69424;48.770;-1.564;2023-07-13T00:37:44;101824.73;;;17.93;69.68
80118;BME280;69424;48.770;-1.564;2023-07-13T00:38:17;101826.88;;;17.92;69.60
80118;BME280;69424;48.770;-1.564;2023-07-13T00:38:50;101825.80;;;17.94;69.62
80118;BME280;69424;48.770;-1.564;2023-07-13T00:39:23;101827.05;;;17.94;69.73
80118;BME280;69424;48.770;-1.564;2023-07-13T00:39:56;101824.19;;;17.94;69.74
80118;BME280;69424;48.770;-1.564;2023-07-13T00:40:30;101822.73;;;17.95;69.74
80118;BME280;69424;48.770;-1.564;2023-07-13T00:41:03;101824.71;;;17.96;69.73
80118;BME280;69424;48.770;-1.564;2023-07-13T00:41:36;101822.02;;;17.97;69.76
80118;BME280;69424;48.770;-1.564;2023-07-13T00:42:10;101819.69;;;17.98;69.45
80118;BME280;69424;48.770;-1.564;2023-07-13T00:42:43;101819.88;;;17.99;69.59
80118;BME280;69424;48.770;-1.564;2023-07-13T00:43:19;101818.79;;;18.01;69.47
80118;BME280;69424;48.770;-1.564;2023-07-13T00:43:52;101816.45;;;18.02;69.43
80118;BME280;69424;48.770;-1.564;2023-07-13T00:44:25;101811.80;;;18.03;69.41
80118;BME280;69424;48.770;-1.564;2023-07-13T00:46:57;101812.86;;;18.03;69.42
80118;BME280;69424;48.770;-1.564;2023-07-13T00:47:31;101814.65;;;18.03;69.42
80118;BME280;69424;48.770;-1.564;2023-07-13T00:48:04;101811.44;;;18.03;69.37
80118;BME280;69424;48.770;-1.564;2023-07-13T00:48:38;101811.25;;;18.03;69.36
80118;BME280;69424;48.770;-1.564;2023-07-13T00:49:13;101809.66;;;18.01;69.56
80118;BME280;69424;48.770;-1.564;2023-07-13T00:49:47;101814.30;;;18.01;69.50
80118;BME280;69424;48.770;-1.564;2023-07-13T00:50:20;101818.44;;;18.00;69.59
80118;BME280;69424;48.770;-1.564;2023-07-13T00:50:57;101821.30;;;18.00;69.74
80118;BME280;69424;48.770;-1.564;2023-07-13T00:51:36;101820.59;;;17.99;69.98
80118;BME280;69424;48.770;-1.564;2023-07-13T00:52:12;101812.89;;;17.99;69.92
80118;BME280;69424;48.770;-1.564;2023-07-13T00:52:46;101816.46;;;18.00;70.16
80118;BME280;69424;48.770;-1.564;2023-07-13T00:53:21;101813.07;;;18.00;70.12
80118;BME280;69424;48.770;-1.564;2023-07-13T00:53:56;101815.73;;;18.01;70.29
80118;BME280;69424;48.770;-1.564;2023-07-13T00:54:36;101816.45;;;18.01;70.63
80118;BME280;69424;48.770;-1.564;2023-07-13T00:55:10;101815.20;;;18.02;70.67
80118;BME280;69424;48.770;-1.564;2023-07-13T00:55:47;101816.80;;;18.02;70.50
80118;BME280;69424;48.770;-1.564;2023-07-13T00:56:22;101817.69;;;18.03;70.11
80118;BME280;69424;48.770;-1.564;2023-07-13T00:57:02;101819.48;;;18.04;69.98
80118;BME280;69424;48.770;-1.564;2023-07-13T00:57:36;101821.80;;;18.05;69.61
80118;BME280;69424;48.770;-1.564;2023-07-13T00:58:12;101818.77;;;18.06;69.28
80118;BME280;69424;48.770;-1.564;2023-07-13T00:58:46;101820.18;;;18.06;69.35
80118;BME280;69424;48.770;-1.564;2023-07-13T00:59:21;101819.30;;;18.06;69.57
80118;BME280;69424;48.770;-1.564;2023-07-13T00:59:57;101818.41;;;18.06;69.60
80118;BME280;69424;48.770;-1.564;2023-07-13T01:00:31;101821.63;;;18.06;69.47
80118;BME280;69424;48.770;-1.564;2023-07-13T01:01:04;101823.23;;;18.06;69.44
80118;BME280;69424;48.770;-1.564;2023-07-13T01:01:37;101824.66;;;18.06;69.34
80118;BME280;69424;48.770;-1.564;2023-07-13T01:02:10;101821.45;;;18.05;69.30
80118;BME280;69424;48.770;-1.564;2023-07-13T01:02:45;101823.60;;;18.04;69.32
80118;BME280;69424;48.770;-1.564;2023-07-13T01:03:19;101825.94;;;18.04;69.21
80118;BME280;69424;48.770;-1.564;2023-07-13T01:03:52;101826.82;;;18.04;69.28
80118;BME280;69424;48.770;-1.564;2023-07-13T01:04:26;101825.94;;;18.03;69.33
80118;BME280;69424;48.770;-1.564;2023-07-13T01:05:00;101828.44;;;18.04;69.48
80118;BME280;69424;48.770;-1.564;2023-07-13T01:05:35;101828.43;;;18.04;69.46
80118;BME280;69424;48.770;-1.564;2023-07-13T01:06:10;101831.48;;;18.04;69.43
80118;BME280;69424;48.770;-1.564;2023-07-13T01:06:45;101827.90;;;18.05;69.29
80118;BME280;69424;48.770;-1.564;2023-07-13T01:07:19;101826.10;;;18.05;69.08
80118;BME280;69424;48.770;-1.564;2023-07-13T01:07:52;101828.78;;;18.06;69.17
80118;BME280;69424;48.770;-1.564;2023-07-13T01:08:25;101824.69;;;18.06;69.23
80118;BME280;69424;48.770;-1.564;2023-07-13T01:08:58;101827.70;;;18.05;69.30
80118;BME280;69424;48.770;-1.564;2023-07-13T01:09:32;101830.58;;;18.05;69.09
80118;BME280;69424;48.770;-1.564;2023-07-13T01:11:10;101827.36;;;18.03;69.03
80118;BME280;69424;48.770;-1.564;2023-07-13T01:11:43;101828.25;;;18.03;69.05
80118;BME280;69424;48.770;-1.564;2023-07-13T01:12:17;101829.86;;;18.03;69.11
80118;BME280;69424;48.770;-1.564;2023-07-13T01:12:53;101827.17;;;18.02;69.28
80118;BME280;69424;48.770;-1.564;2023-07-13T01:13:27;101828.26;;;18.03;69.23
80118;BME280;69424;48.770;-1.564;2023-07-13T01:14:00;101831.67;;;18.03;69.53
80118;BME280;69424;48.770;-1.564;2023-07-13T01:14:34;101825.57;;;18.03;69.60
80118;BME280;69424;48.770;-1.564;2023-07-13T01:15:39;101828.61;;;18.03;69.78
80118;BME280;69424;48.770;-1.564;2023-07-13T01:16:25;101828.62;;;18.01;70.05
80118;BME280;69424;48.770;-1.564;2023-07-13T01:16:59;101825.59;;;17.99;69.77
80118;BME280;69424;48.770;-1.564;2023-07-13T01:17:34;101825.60;;;17.99;69.61
80118;BME280;69424;48.770;-1.564;2023-07-13T01:18:10;101829.35;;;17.99;69.53
80118;BME280;69424;48.770;-1.564;2023-07-13T01:18:44;101824.52;;;17.98;69.42
80118;BME280;69424;48.770;-1.564;2023-07-13T01:19:23;101821.66;;;17.98;69.49
80118;BME280;69424;48.770;-1.564;2023-07-13T01:20:02;101823.45;;;17.98;69.57
80118;BME280;69424;48.770;-1.564;2023-07-13T01:20:38;101825.42;;;17.98;69.81
80118;BME280;69424;48.770;-1.564;2023-07-13T01:21:11;101827.39;;;17.97;70.72
80118;BME280;69424;48.770;-1.564;2023-07-13T01:21:50;101828.30;;;17.98;70.66
80118;BME280;69424;48.770;-1.564;2023-07-13T01:22:23;101824.71;;;17.98;70.53
80118;BME280;69424;48.770;-1.564;2023-07-13T01:22:59;101824.70;;;17.98;70.55
80118;BME280;69424;48.770;-1.564;2023-07-13T01:23:35;101832.39;;;17.99;70.48
80118;BME280;69424;48.770;-1.564;2023-07-13T01:24:09;101830.61;;;17.99;70.44
80118;BME280;69424;48.770;-1.564;2023-07-13T01:24:44;101830.61;;;18.00;70.11
80118;BME280;69424;48.770;-1.564;2023-07-13T01:25:18;101824.88;;;18.01;69.95
80118;BME280;69424;48.770;-1.564;2023-07-13T01:25:53;101824.86;;;18.01;69.82
80118;BME280;69424;48.770;-1.564;2023-07-13T01:26:26;101828.08;;;18.02;69.90
80118;BME280;69424;48.770;-1.564;2023-07-13T01:27:00;101830.41;;;18.03;70.16
80118;BME280;69424;48.770;-1.564;2023-07-13T01:27:32;101828.09;;;18.03;70.28
80118;BME280;69424;48.770;-1.564;2023-07-13T01:28:08;101828.98;;;18.03;70.33
80118;BME280;69424;48.770;-1.564;2023-07-13T01:28:43;101829.69;;;18.04;70.46
80118;BME280;69424;48.770;-1.564;2023-07-13T01:29:16;101831.48;;;18.04;70.34
80118;BME280;69424;48.770;-1.564;2023-07-13T01:29:51;101829.52;;;18.04;70.51
80118;BME280;69424;48.770;-1.564;2023-07-13T01:30:24;101833.80;;;18.04;70.33
80118;BME280;69424;48.770;-1.564;2023-07-13T01:30:58;101835.95;;;18.05;70.24
80118;BME280;69424;48.770;-1.564;2023-07-13T01:31:31;101832.55;;;18.05;70.32
80118;BME280;69424;48.770;-1.564;2023-07-13T01:32:04;101829.52;;;18.05;70.40
80118;BME280;69424;48.770;-1.564;2023-07-13T01:32:37;101828.95;;;18.04;70.27
80118;BME280;69424;48.770;-1.564;2023-07-13T01:33:14;101832.02;;;18.05;70.40
80118;BME280;69424;48.770;-1.564;2023-07-13T01:33:47;101834.52;;;18.05;70.08
80118;BME280;69424;48.770;-1.564;2023-07-13T01:34:20;101831.81;;;18.06;70.01
80118;BME280;69424;48.770;-1.564;2023-07-13T01:34:54;101834.52;;;18.07;69.84
80118;BME280;69424;48.770;-1.564;2023-07-13T01:35:27;101830.39;;;18.08;69.80
80118;BME280;69424;48.770;-1.564;2023-07-13T01:36:00;101831.10;;;18.08;69.73
80118;BME280;69424;48.770;-1.564;2023-07-13T01:36:35;101832.52;;;18.09;69.72
80118;BME280;69424;48.770;-1.564;2023-07-13T01:37:10;101833.42;;;18.09;69.78
80118;BME280;69424;48.770;-1.564;2023-07-13T01:37:43;101832.52;;;18.10;69.74
80118;BME280;69424;48.770;-1.564;2023-07-13T01:38:20;101828.40;;;18.10;69.81
80118;BME280;69424;48.770;-1.564;2023-07-13T01:38:53;101827.70;;;18.09;70.02
80118;BME280;69424;48.770;-1.564;2023-07-13T01:39:26;101834.66;;;18.09;70.26
80118;BME280;69424;48.770;-1.564;2023-07-13T01:39:59;101829.48;;;18.09;70.74
80118;BME280;69424;48.770;-1.564;2023-07-13T01:40:33;101833.42;;;18.08;70.62
80118;BME280;69424;48.770;-1.564;2023-07-13T01:41:05;101831.83;;;18.07;70.75
80118;BME280;69424;48.770;-1.564;2023-07-13T01:41:38;101833.61;;;18.06;71.00
80118;BME280;69424;48.770;-1.564;2023-07-13T01:42:13;101837.92;;;18.06;70.98
80118;BME280;69424;48.770;-1.564;2023-07-13T01:42:46;101835.23;;;18.06;70.93
80118;BME280;69424;48.770;-1.564;2023-07-13T01:43:19;101838.63;;;18.07;70.88
80118;BME280;69424;48.770;-1.564;2023-07-13T01:43:53;101839.52;;;18.07;70.89
80118;BME280;69424;48.770;-1.564;2023-07-13T01:44:26;101841.84;;;18.08;70.92
80118;BME280;69424;48.770;-1.564;2023-07-13T01:44:59;101835.75;;;18.08;71.16
80118;BME280;69424;48.770;-1.564;2023-07-13T01:45:32;101839.33;;;18.09;71.34
80118;BME280;69424;48.770;-1.564;2023-07-13T01:46:05;101839.48;;;18.09;71.12
80118;BME280;69424;48.770;-1.564;2023-07-13T01:46:55;101841.29;;;18.09;71.03
80118;BME280;69424;48.770;-1.564;2023-07-13T01:47:29;101841.48;;;18.09;70.93
80118;BME280;69424;48.770;-1.564;2023-07-13T01:48:04;101842.73;;;18.09;70.20
80118;BME280;69424;48.770;-1.564;2023-07-13T01:48:39;101844.34;;;18.10;69.64
80118;BME280;69424;48.770;-1.564;2023-07-13T01:49:12;101842.73;;;18.09;69.64
80118;BME280;69424;48.770;-1.564;2023-07-13T01:49:45;101843.27;;;18.08;69.48
80118;BME280;69424;48.770;-1.564;2023-07-13T01:50:20;101843.10;;;18.08;69.79
80118;BME280;69424;48.770;-1.564;2023-07-13T01:50:53;101849.00;;;18.07;70.07
80118;BME280;69424;48.770;-1.564;2023-07-13T01:51:26;101841.67;;;18.06;69.86
80118;BME280;69424;48.770;-1.564;2023-07-13T01:51:59;101842.93;;;18.06;69.80
80118;BME280;69424;48.770;-1.564;2023-07-13T01:52:32;101846.33;;;18.04;69.99
80118;BME280;69424;48.770;-1.564;2023-07-13T01:53:05;101841.69;;;18.03;69.98
80118;BME280;69424;48.770;-1.564;2023-07-13T01:53:38;101847.05;;;18.02;70.10
80118;BME280;69424;48.770;-1.564;2023-07-13T01:54:11;101842.95;;;18.00;70.11
80118;BME280;69424;48.770;-1.564;2023-07-13T01:54:44;101844.23;;;17.99;70.01
80118;BME280;69424;48.770;-1.564;2023-07-13T01:55:18;101842.25;;;17.98;70.03
80118;BME280;69424;48.770;-1.564;2023-07-13T01:55:51;101842.08;;;17.98;70.08
80118;BME280;69424;48.770;-1.564;2023-07-13T01:56:24;101840.82;;;17.98;70.02
80118;BME280;69424;48.770;-1.564;2023-07-13T01:56:57;101837.59;;;17.98;70.06
80118;BME280;69424;48.770;-1.564;2023-07-13T01:57:30;101838.66;;;17.98;70.25
80118;BME280;69424;48.770;-1.564;2023-07-13T01:58:03;101838.30;;;17.98;69.98
80118;BME280;69424;48.770;-1.564;2023-07-13T01:58:36;101839.75;;;17.97;70.17
80118;BME280;69424;48.770;-1.564;2023-07-13T01:59:09;101839.92;;;17.95;70.14
80118;BME280;69424;48.770;-1.564;2023-07-13T01:59:42;101840.11;;;17.94;70.17
80118;BME280;69424;48.770;-1.564;2023-07-13T02:00:15;101836.17;;;17.94;70.24
80118;BME280;69424;48.770;-1.564;2023-07-13T02:00:49;101838.85;;;17.94;70.34
80118;BME280;69424;48.770;-1.564;2023-07-13T02:01:23;101841.01;;;17.93;70.30
80118;BME280;69424;48.770;-1.564;2023-07-13T02:01:57;101841.36;;;17.92;70.36
80118;BME280;69424;48.770;-1.564;2023-07-13T02:02:32;101834.55;;;17.92;70.20
80118;BME280;69424;48.770;-1.564;2023-07-13T02:03:05;101832.77;;;17.92;70.14
80118;BME280;69424;48.770;-1.564;2023-07-13T02:03:38;101835.46;;;17.92;70.23
80118;BME280;69424;48.770;-1.564;2023-07-13T02:04:11;101831.70;;;17.92;70.26
80118;BME280;69424;48.770;-1.564;2023-07-13T02:04:44;101832.95;;;17.93;70.16
80118;BME280;69424;48.770;-1.564;2023-07-13T02:05:17;101835.11;;;17.93;70.16
80118;BME280;69424;48.770;-1.564;2023-07-13T02:05:50;101830.82;;;17.93;70.16
80118;BME280;69424;48.770;-1.564;2023-07-13T02:06:23;101827.05;;;17.93;70.32
80118;BME280;69424;48.770;-1.564;2023-07-13T02:06:56;101832.59;;;17.93;70.42
80118;BME280;69424;48.770;-1.564;2023-07-13T02:07:29;101830.81;;;17.92;70.19
80118;BME280;69424;48.770;-1.564;2023-07-13T02:08:02;101831.17;;;17.91;70.31
80118;BME280;69424;48.770;-1.564;2023-07-13T02:08:37;101830.29;;;17.90;70.63
80118;BME280;69424;48.770;-1.564;2023-07-13T02:09:10;101830.83;;;17.88;70.66
80118;BME280;69424;48.770;-1.564;2023-07-13T02:09:42;101835.48;;;17.88;70.73
80118;BME280;69424;48.770;-1.564;2023-07-13T02:10:15;101832.07;;;17.87;70.75
80118;BME280;69424;48.770;-1.564;2023-07-13T02:10:49;101832.95;;;17.85;70.59
80118;BME280;69424;48.770;-1.564;2023-07-13T02:11:22;101826.69;;;17.84;70.71
80118;BME280;69424;48.770;-1.564;2023-07-13T02:11:55;101833.68;;;17.84;70.77
80118;BME280;69424;48.770;-1.564;2023-07-13T02:12:28;101828.83;;;17.84;70.94
80118;BME280;69424;48.770;-1.564;2023-07-13T02:13:01;101830.80;;;17.83;70.75
80118;BME280;69424;48.770;-1.564;2023-07-13T02:13:34;101828.50;;;17.82;70.75
80118;BME280;69424;48.770;-1.564;2023-07-13T02:14:07;101829.20;;;17.81;70.77
80118;BME280;69424;48.770;-1.564;2023-07-13T02:14:40;101832.06;;;17.81;71.06
80118;BME280;69424;48.770;-1.564;2023-07-13T02:15:13;101830.28;;;17.81;70.90
80118;BME280;69424;48.770;-1.564;2023-07-13T02:15:46;101831.17;;;17.81;70.78
80118;BME280;69424;48.770;-1.564;2023-07-13T02:16:19;101829.92;;;17.81;70.95
80118;BME280;69424;48.770;-1.564;2023-07-13T02:16:52;101830.27;;;17.81;70.83
80118;BME280;69424;48.770;-1.564;2023-07-13T02:17:26;101832.61;;;17.81;71.05
80118;BME280;69424;48.770;-1.564;2023-07-13T02:17:59;101836.36;;;17.81;71.16
80118;BME280;69424;48.770;-1.564;2023-07-13T02:18:32;101833.67;;;17.82;71.26
80118;BME280;69424;48.770;-1.564;2023-07-13T02:19:05;101839.77;;;17.82;71.58
80118;BME280;69424;48.770;-1.564;2023-07-13T02:19:39;101836.73;;;17.80;71.48
80118;BME280;69424;48.770;-1.564;2023-07-13T02:20:12;101845.84;;;17.80;71.67
80118;BME280;69424;48.770;-1.564;2023-07-13T02:20:45;101839.78;;;17.80;71.56
80118;BME280;69424;48.770;-1.564;2023-07-13T02:21:18;101842.10;;;17.79;71.66
80118;BME280;69424;48.770;-1.564;2023-07-13T02:21:51;101842.81;;;17.77;71.50
80118;BME280;69424;48.770;-1.564;2023-07-13T02:22:24;101840.51;;;17.76;71.65
80118;BME280;69424;48.770;-1.564;2023-07-13T02:22:57;101840.33;;;17.76;71.63
80118;BME280;69424;48.770;-1.564;2023-07-13T02:23:30;101841.75;;;17.74;71.61
80118;BME280;69424;48.770;-1.564;2023-07-13T02:24:04;101844.43;;;17.74;71.70
80118;BME280;69424;48.770;-1.564;2023-07-13T02:24:37;101837.82;;;17.73;71.70
80118;BME280;69424;48.770;-1.564;2023-07-13T02:25:10;101839.98;;;17.73;71.68
80118;BME280;69424;48.770;-1.564;2023-07-13T02:25:45;101840.87;;;17.73;71.89
80118;BME280;69424;48.770;-1.564;2023-07-13T02:26:18;101843.00;;;17.74;71.60
80118;BME280;69424;48.770;-1.564;2023-07-13T02:26:51;101837.98;;;17.74;71.53
80118;BME280;69424;48.770;-1.564;2023-07-13T02:27:26;101833.53;;;17.75;71.37
80118;BME280;69424;48.770;-1.564;2023-07-13T02:27:59;101838.71;;;17.75;71.23
80118;BME280;69424;48.770;-1.564;2023-07-13T02:28:33;101832.27;;;17.76;71.36
80118;BME280;69424;48.770;-1.564;2023-07-13T02:29:06;101833.15;;;17.77;71.49
80118;BME280;69424;48.770;-1.564;2023-07-13T02:29:39;101832.80;;;17.79;71.52
80118;BME280;69424;48.770;-1.564;2023-07-13T02:30:12;101826.89;;;17.80;71.56
80118;BME280;69424;48.770;-1.564;2023-07-13T02:30:45;101830.45;;;17.81;71.71
80118;BME280;69424;48.770;-1.564;2023-07-13T02:31:18;101835.82;;;17.83;71.98
80118;BME280;69424;48.770;-1.564;2023-07-13T02:31:51;101829.02;;;17.82;72.00
80118;BME280;69424;48.770;-1.564;2023-07-13T02:32:24;101828.85;;;17.82;71.82
80118;BME280;69424;48.770;-1.564;2023-07-13T02:32:58;101827.96;;;17.82;71.89
80118;BME280;69424;48.770;-1.564;2023-07-13T02:33:31;101827.23;;;17.81;72.06
80118;BME280;69424;48.770;-1.564;2023-07-13T02:34:04;101827.77;;;17.82;72.00
80118;BME280;69424;48.770;-1.564;2023-07-13T02:34:37;101826.52;;;17.81;71.94
80118;BME280;69424;48.770;-1.564;2023-07-13T02:35:10;101823.85;;;17.81;72.04
80118;BME280;69424;48.770;-1.564;2023-07-13T02:35:43;101825.45;;;17.80;71.94
80118;BME280;69424;48.770;-1.564;2023-07-13T02:36:16;101824.76;;;17.78;71.73
80118;BME280;69424;48.770;-1.564;2023-07-13T02:36:49;101827.80;;;17.77;71.71
80118;BME280;69424;48.770;-1.564;2023-07-13T02:37:22;101823.69;;;17.76;71.45
80118;BME280;69424;48.770;-1.564;2023-07-13T02:37:56;101827.08;;;17.75;71.05
80118;BME280;69424;48.770;-1.564;2023-07-13T02:38:29;101828.16;;;17.74;71.11
80118;BME280;69424;48.770;-1.564;2023-07-13T02:39:03;101823.69;;;17.74;71.14
80118;BME280;69424;48.770;-1.564;2023-07-13T02:39:40;101827.27;;;17.74;71.20
80118;BME280;69424;48.770;-1.564;2023-07-13T02:40:14;101824.41;;;17.74;71.16
80118;BME280;69424;48.770;-1.564;2023-07-13T02:40:47;101823.15;;;17.74;71.10
80118;BME280;69424;48.770;-1.564;2023-07-13T02:41:20;101820.47;;;17.75;71.28
80118;BME280;69424;48.770;-1.564;2023-07-13T02:41:53;101820.83;;;17.76;71.32
80118;BME280;69424;48.770;-1.564;2023-07-13T02:42:26;101824.02;;;17.77;71.37
80118;BME280;69424;48.770;-1.564;2023-07-13T02:42:59;101824.76;;;17.78;71.51
80118;BME280;69424;48.770;-1.564;2023-07-13T02:43:33;101825.29;;;17.78;71.62
80118;BME280;69424;48.770;-1.564;2023-07-13T02:44:05;101821.72;;;17.78;71.74
80118;BME280;69424;48.770;-1.564;2023-07-13T02:44:40;101825.83;;;17.77;71.80
80118;BME280;69424;48.770;-1.564;2023-07-13T02:45:13;101827.45;;;17.77;71.78
80118;BME280;69424;48.770;-1.564;2023-07-13T02:45:46;101824.77;;;17.75;71.69
80118;BME280;69424;48.770;-1.564;2023-07-13T02:46:20;101819.75;;;17.75;71.66
80118;BME280;69424;48.770;-1.564;2023-07-13T02:46:53;101823.68;;;17.75;71.57
80118;BME280;69424;48.770;-1.564;2023-07-13T02:47:26;101825.11;;;17.75;71.67
80118;BME280;69424;48.770;-1.564;2023-07-13T02:47:59;101823.15;;;17.76;71.66
80118;BME280;69424;48.770;-1.564;2023-07-13T02:48:33;101821.36;;;17.75;71.84
80118;BME280;69424;48.770;-1.564;2023-07-13T02:49:06;101822.61;;;17.76;71.93
80118;BME280;69424;48.770;-1.564;2023-07-13T02:49:39;101824.59;;;17.76;71.79
80118;BME280;69424;48.770;-1.564;2023-07-13T02:50:13;101823.49;;;17.77;71.76
80118;BME280;69424;48.770;-1.564;2023-07-13T02:50:46;101823.14;;;17.78;71.43
80118;BME280;69424;48.770;-1.564;2023-07-13T02:51:19;101823.50;;;17.80;71.39
80118;BME280;69424;48.770;-1.564;2023-07-13T02:51:52;101820.98;;;17.81;71.58
80118;BME280;69424;48.770;-1.564;2023-07-13T02:52:25;101823.13;;;17.82;71.54
80118;BME280;69424;48.770;-1.564;2023-07-13T02:52:58;101823.47;;;17.83;71.57
80118;BME280;69424;48.770;-1.564;2023-07-13T02:53:31;101827.95;;;17.84;71.22
80118;BME280;69424;48.770;-1.564;2023-07-13T02:54:04;101827.23;;;17.84;70.92
80118;BME280;69424;48.770;-1.564;2023-07-13T02:54:38;101823.84;;;17.85;70.90
80118;BME280;69424;48.770;-1.564;2023-07-13T02:55:12;101820.96;;;17.85;70.40
80118;BME280;69424;48.770;-1.564;2023-07-13T02:55:44;101824.89;;;17.87;70.10
80118;BME280;69424;48.770;-1.564;2023-07-13T02:56:27;101823.46;;;17.86;70.29
80118;BME280;69424;48.770;-1.564;2023-07-13T02:57:01;101820.97;;;17.84;70.46
80118;BME280;69424;48.770;-1.564;2023-07-13T02:57:34;101823.12;;;17.84;70.52
80118;BME280;69424;48.770;-1.564;2023-07-13T02:58:07;101827.77;;;17.83;71.02
80118;BME280;69424;48.770;-1.564;2023-07-13T02:58:40;101823.30;;;17.83;71.24
80118;BME280;69424;48.770;-1.564;2023-07-13T02:59:13;101819.71;;;17.83;71.72